Time;durP1;ratioP1;P1;durP2;ratioP2;P2;SDS_P1;SDS_P2;PMS_P1;PMS_P2;Temp;Humidity;BMP_temperature;BMP_pressure;BME280_temperature;BME280_humidity;BME280_pressure;Samples;Min_cycle;Max_cycle;Signal;HPM_P1;HPM_P2
2021/12/06 00:01:58;;;;;;;25.50;13.43;;;;;;;4.78;76.73;94463.00;5006105;28;20403;-78
2021/12/06 00:04:27;;;;;;;29.23;14.25;;;;;;;4.79;76.53;94462.00;5005967;28;20411;-76
2021/12/06 00:06:55;;;;;;;23.95;12.55;;;;;;;4.87;76.28;94469.19;5005674;28;20100;-77
2021/12/06 00:09:22;;;;;;;22.58;12.30;;;;;;;4.84;75.91;94464.19;5005425;28;20203;-78
2021/12/06 00:11:50;;;;;;;23.95;12.13;;;;;;;4.92;75.59;94469.50;5004262;28;20033;-77
2021/12/06 00:14:15;;;;;;;21.58;11.75;;;;;;;4.90;75.83;94474.16;5006419;28;20040;-77
2021/12/06 00:16:41;;;;;;;23.08;12.30;;;;;;;4.85;75.73;94452.56;5004142;28;20038;-77
2021/12/06 00:19:06;;;;;;;21.27;11.48;;;;;;;4.93;75.26;94455.22;5006169;28;20041;-77
2021/12/06 00:21:32;;;;;;;24.58;12.18;;;;;;;4.96;75.37;94441.59;5008475;28;20105;-78
2021/12/06 00:23:57;;;;;;;19.70;11.38;;;;;;;4.94;75.34;94459.53;5007982;28;20030;-77
2021/12/06 00:26:22;;;;;;;23.75;11.27;;;;;;;4.97;74.80;94447.72;5009680;28;20026;-78
2021/12/06 00:28:55;;;;;;;23.75;12.02;;;;;;;4.99;75.16;94465.19;5007974;28;20092;-77
2021/12/06 00:31:21;;;;;;;;;;;;;;;4.99;74.85;94478.47;5010630;28;20480;-77
2021/12/06 00:33:52;;;;;;;20.02;10.98;;;;;;;4.95;75.56;94491.25;5009026;28;19913;-78
2021/12/06 00:36:26;;;;;;;24.00;11.77;;;;;;;4.99;75.90;94494.41;5008490;28;20105;-77
2021/12/06 00:38:52;;;;;;;19.88;12.13;;;;;;;4.96;75.52;94492.09;5009070;28;20026;-77
2021/12/06 00:41:17;;;;;;;20.58;11.55;;;;;;;4.95;75.64;94506.34;5008074;28;20411;-78
2021/12/06 00:43:43;;;;;;;24.13;12.38;;;;;;;4.98;75.51;94495.41;5009721;28;20022;-77
2021/12/06 00:46:08;;;;;;;20.92;12.23;;;;;;;5.00;75.19;94488.09;5008847;28;20025;-77
2021/12/06 00:48:33;;;;;;;23.85;11.93;;;;;;;4.93;76.44;94493.25;5009787;28;20476;-77
2021/12/06 00:50:59;;;;;;;23.05;11.65;;;;;;;4.97;77.04;94493.75;5008668;28;20022;-77
2021/12/06 00:53:24;;;;;;;20.58;11.65;;;;;;;5.05;75.64;94499.06;5009753;28;20072;-78
2021/12/06 00:55:50;;;;;;;22.60;11.60;;;;;;;5.13;76.32;94495.56;5008454;28;20034;-78
2021/12/06 00:58:15;;;;;;;22.75;12.00;;;;;;;5.11;75.94;94491.44;5009296;28;20026;-77
2021/12/06 01:00:45;;;;;;;22.40;11.48;;;;;;;5.11;76.39;94492.25;5008900;28;20667;-76
2021/12/06 01:03:22;;;;;;;22.40;11.65;;;;;;;5.12;76.36;94472.66;5008514;28;20030;-77
2021/12/06 01:05:48;;;;;;;22.83;11.85;;;;;;;5.15;76.49;94469.66;5009419;28;20072;-77
2021/12/06 01:08:14;;;;;;;21.88;10.73;;;;;;;5.19;75.75;94488.78;5006857;28;20504;-79
2021/12/06 01:10:42;;;;;;;19.80;11.32;;;;;;;5.24;75.70;94486.44;5008187;28;20026;-77
2021/12/06 01:13:07;;;;;;;20.63;11.45;;;;;;;5.22;76.30;94485.78;5008342;28;20026;-76
2021/12/06 01:15:33;;;;;;;20.58;11.60;;;;;;;5.18;75.85;94487.09;5009341;28;20026;-76
2021/12/06 01:18:01;;;;;;;22.45;11.57;;;;;;;5.29;76.19;94484.09;5008251;28;20097;-78
2021/12/06 01:20:29;;;;;;;23.05;11.88;;;;;;;5.41;75.68;94486.44;5008552;28;20026;-78
2021/12/06 01:23:07;;;;;;;19.33;10.98;;;;;;;5.39;74.86;94462.66;5008872;28;20037;-78
2021/12/06 01:39:48;;;;;;;15.95;9.40;;;;;;;5.36;75.97;94454.19;5007415;28;20352;-78
2021/12/06 01:42:14;;;;;;;18.10;10.93;;;;;;;5.38;75.47;94454.84;5007677;28;20033;-77
2021/12/06 01:44:49;;;;;;;16.67;10.35;;;;;;;5.40;75.38;94452.88;5008432;28;20041;-77
2021/12/06 01:47:17;;;;;;;20.08;10.93;;;;;;;5.42;74.84;94451.69;5007559;28;20022;-77
2021/12/06 01:49:47;;;;;;;19.55;10.95;;;;;;;5.47;75.12;94437.88;5008831;28;20030;-76
2021/12/06 01:52:18;;;;;;;19.85;10.65;;;;;;;5.47;75.46;94443.19;5007513;28;20052;-77
2021/12/06 01:54:43;;;;;;;18.30;10.45;;;;;;;5.44;74.91;94440.88;5008243;28;20053;-77
2021/12/06 01:57:09;;;;;;;23.25;12.35;;;;;;;5.54;75.40;94440.69;5008256;28;20492;-76
2021/12/06 01:59:34;;;;;;;20.05;11.57;;;;;;;5.45;75.15;94429.22;5007532;28;20073;-77
2021/12/06 02:02:00;;;;;;;23.42;12.13;;;;;;;5.53;75.58;94423.09;5008140;28;20037;-78
2021/12/06 02:04:26;;;;;;;21.23;11.50;;;;;;;5.53;75.23;94431.88;5007080;28;20026;-78
2021/12/06 02:06:51;;;;;;;18.92;11.50;;;;;;;5.57;75.03;94419.06;5008181;28;20025;-78
2021/12/06 02:09:17;;;;;;;20.95;11.63;;;;;;;5.56;75.23;94414.75;5006492;28;20053;-78
2021/12/06 02:11:43;;;;;;;20.60;11.20;;;;;;;5.60;75.03;94417.88;5007778;28;20033;-77
2021/12/06 02:16:57;;;;;;;17.38;11.07;;;;;;;5.61;74.20;94407.06;5006133;28;20080;-78
2021/12/06 02:19:29;;;;;;;19.70;10.98;;;;;;;5.65;74.80;94408.41;5007737;28;20030;-78
2021/12/06 02:21:55;;;;;;;16.65;10.05;;;;;;;5.65;74.19;94415.53;5007057;28;20033;-77
2021/12/06 02:24:20;;;;;;;16.65;10.13;;;;;;;5.69;73.72;94425.66;5007570;28;20030;-77
2021/12/06 02:26:46;;;;;;;18.15;10.32;;;;;;;5.68;73.80;94421.38;5006703;28;20080;-78
2021/12/06 02:29:11;;;;;;;19.80;10.38;;;;;;;5.63;74.84;94423.69;5007411;28;20030;-79
2021/12/06 02:31:37;;;;;;;18.75;11.35;;;;;;;5.58;74.69;94423.38;5005581;28;20028;-77
2021/12/06 02:34:02;;;;;;;27.05;12.43;;;;;;;5.45;75.14;94429.22;5005830;28;20079;-79
2021/12/06 02:36:28;;;;;;;28.08;13.75;;;;;;;5.09;75.71;94429.63;5007624;28;20073;-76
2021/12/06 02:38:53;;;;;;;26.98;13.82;;;;;;;5.06;76.43;94428.16;5006625;28;20038;-78
2021/12/06 02:41:19;;;;;;;27.05;14.68;;;;;;;5.19;75.67;94422.31;5007679;28;20030;-77
2021/12/06 02:43:45;;;;;;;29.48;15.40;;;;;;;5.08;75.25;94410.19;5006114;28;20032;-78
2021/12/06 02:46:10;;;;;;;30.80;15.57;;;;;;;5.01;76.34;94406.56;5005813;28;20032;-77
2021/12/06 02:48:36;;;;;;;29.05;16.02;;;;;;;5.10;75.40;94407.38;5006458;28;20092;-77
2021/12/06 02:51:02;;;;;;;30.83;15.73;;;;;;;5.03;75.16;94408.03;5006916;28;20025;-77
2021/12/06 02:53:29;;;;;;;27.27;14.43;;;;;;;5.13;74.84;94412.34;5005450;28;20033;-77
2021/12/06 02:55:59;;;;;;;29.67;16.30;;;;;;;5.13;74.60;94426.47;5006561;28;20041;-77
2021/12/06 02:59:19;;;;;;;31.33;16.25;;;;;;;5.07;75.02;94422.66;4990181;28;20037;-77
2021/12/06 03:01:27;;;;;;;35.08;17.83;;;;;;;5.07;75.37;94433.28;5005637;28;20480;-76
2021/12/06 03:03:53;;;;;;;29.17;16.85;;;;;;;5.09;75.27;94424.31;5006972;28;20032;-78
2021/12/06 03:06:18;;;;;;;30.65;16.55;;;;;;;5.10;75.00;94416.19;5006669;28;20022;-77
2021/12/06 03:08:46;;;;;;;35.63;17.08;;;;;;;5.05;75.11;94414.03;5004583;28;20076;-78
2021/12/06 03:11:28;;;;;;;32.13;16.60;;;;;;;5.06;75.41;94407.69;5007059;28;20040;-77
2021/12/06 03:13:54;;;;;;;30.10;17.25;;;;;;;5.03;75.81;94415.19;5006291;28;20030;-78
2021/12/06 03:16:19;;;;;;;30.42;17.33;;;;;;;5.03;75.61;94418.66;5006798;28;20113;-78
2021/12/06 03:18:46;;;;;;;32.10;17.10;;;;;;;5.10;75.10;94421.50;5006013;28;20451;-78
2021/12/06 03:21:11;;;;;;;33.63;17.95;;;;;;;5.13;74.27;94412.34;5006714;28;20426;-77
2021/12/06 03:23:37;;;;;;;30.45;16.60;;;;;;;5.10;74.20;94399.38;5006260;28;20058;-76
2021/12/06 03:26:03;;;;;;;30.20;17.08;;;;;;;5.09;74.55;94403.06;5004765;28;20030;-77
2021/12/06 03:28:28;;;;;;;31.60;16.30;;;;;;;5.03;74.31;94405.38;5006768;28;20100;-77
2021/12/06 03:30:53;;;;;;;30.98;16.10;;;;;;;5.06;73.81;94410.34;5004739;28;20030;-78
2021/12/06 03:33:19;;;;;;;29.80;16.35;;;;;;;5.10;73.92;94415.34;5006890;28;20034;-80
2021/12/06 03:35:44;;;;;;;25.85;15.00;;;;;;;4.94;75.03;94399.25;5006149;28;20052;-77
2021/12/06 03:38:10;;;;;;;22.52;12.40;;;;;;;5.07;76.08;94390.78;5005263;28;20034;-78
2021/12/06 03:40:35;;;;;;;21.02;12.45;;;;;;;5.17;76.35;94390.59;5005978;28;20029;-76
2021/12/06 03:43:01;;;;;;;26.80;14.40;;;;;;;5.23;76.04;94389.06;5006116;28;20026;-77
2021/12/06 03:45:26;;;;;;;25.08;12.73;;;;;;;5.30;75.76;94400.66;5006542;28;20038;-77
2021/12/06 03:47:51;;;;;;;19.73;11.80;;;;;;;5.35;76.96;94396.69;5004332;28;20026;-77
2021/12/06 03:50:17;;;;;;;21.25;12.30;;;;;;;5.40;76.15;94394.34;5005596;28;20037;-78
2021/12/06 03:52:42;;;;;;;21.92;12.48;;;;;;;5.36;75.81;94393.03;5005610;28;20026;-78
2021/12/06 03:55:08;;;;;;;20.42;12.20;;;;;;;5.43;76.05;94396.69;5007339;28;20025;-77
2021/12/06 03:57:34;;;;;;;20.33;12.35;;;;;;;5.41;76.65;94391.53;4992194;28;20451;-78
2021/12/06 03:59:59;;;;;;;23.20;13.30;;;;;;;5.39;76.71;94392.69;5009746;28;20029;-76
2021/12/06 04:02:28;;;;;;;25.23;13.63;;;;;;;5.37;76.77;94386.72;5009846;28;20041;-78
2021/12/06 04:04:53;;;;;;;23.17;13.80;;;;;;;5.39;76.93;94380.22;5009526;28;20049;-77
2021/12/06 04:07:21;;;;;;;25.15;13.75;;;;;;;5.47;76.29;94397.13;4992884;28;20073;-78
2021/12/06 04:09:46;;;;;;;24.60;14.65;;;;;;;5.50;75.86;94394.97;5007793;28;20076;-77
2021/12/06 04:12:12;;;;;;;24.00;13.55;;;;;;;5.50;75.88;94394.97;5010462;28;20426;-76
2021/12/06 04:14:37;;;;;;;24.70;13.20;;;;;;;5.53;76.12;94394.63;5009890;28;20026;-78
2021/12/06 04:17:03;;;;;;;26.63;14.20;;;;;;;5.54;75.97;94401.63;5013600;28;20109;-78
2021/12/06 04:19:29;;;;;;;20.45;12.82;;;;;;;5.55;76.47;94405.94;5012796;28;20083;-78
2021/12/06 04:21:54;;;;;;;23.25;13.25;;;;;;;5.47;76.43;94407.78;5012043;28;20064;-78
2021/12/06 04:24:19;;;;;;;22.63;13.05;;;;;;;5.50;76.90;94400.28;5009155;28;20026;-76
2021/12/06 04:26:45;;;;;;;21.52;11.70;;;;;;;5.56;76.11;94412.91;5009474;28;20030;-78
2021/12/06 04:29:11;;;;;;;19.33;12.25;;;;;;;5.53;77.13;94415.91;5010332;28;20034;-77
2021/12/06 04:31:43;;;;;;;22.42;11.77;;;;;;;5.67;76.08;94401.06;5009427;28;20065;-77
2021/12/06 04:34:08;;;;;;;24.45;12.43;;;;;;;5.65;76.01;94403.09;5009733;28;20076;-78
2021/12/06 04:36:34;;;;;;;20.98;12.43;;;;;;;5.70;76.42;94389.25;5009387;28;20026;-77
2021/12/06 04:38:59;;;;;;;23.05;11.68;;;;;;;5.71;75.76;94390.91;5009484;28;20032;-77
2021/12/06 04:41:25;;;;;;;21.23;11.88;;;;;;;5.69;76.22;94398.25;5009637;28;20026;-77
2021/12/06 04:43:50;;;;;;;22.63;13.02;;;;;;;5.72;76.18;94394.41;5008919;28;20022;-77
2021/12/06 04:46:16;;;;;;;21.25;11.98;;;;;;;5.64;76.20;94396.09;5008823;28;20041;-77
2021/12/06 04:48:41;;;;;;;21.27;12.27;;;;;;;5.67;76.30;94390.41;5009118;28;20503;-78
2021/12/06 04:51:07;;;;;;;20.98;12.02;;;;;;;5.75;75.63;94394.06;5009842;28;20039;-77
2021/12/06 04:53:36;;;;;;;23.55;12.45;;;;;;;5.76;75.96;94388.56;5009007;28;20026;-78
2021/12/06 04:56:19;;;;;;;24.25;12.65;;;;;;;5.65;76.37;94399.59;5009321;28;20030;-76
2021/12/06 04:58:45;;;;;;;21.95;12.75;;;;;;;5.69;76.19;94393.75;5009154;28;20042;-77
2021/12/06 05:01:12;;;;;;;21.45;12.80;;;;;;;5.69;76.21;94390.28;5008901;28;20463;-76
2021/12/06 05:03:38;;;;;;;25.55;12.93;;;;;;;5.68;75.90;94401.91;5009292;28;20038;-77
2021/12/06 05:06:07;;;;;;;23.98;13.32;;;;;;;5.64;76.10;94400.59;5006546;28;20025;-76
2021/12/06 05:08:35;;;;;;;25.50;13.15;;;;;;;5.56;76.93;94404.94;5009318;28;20427;-78
2021/12/06 05:11:01;;;;;;;24.23;14.55;;;;;;;5.64;76.42;94396.09;5007392;28;20180;-77
2021/12/06 05:13:27;;;;;;;29.55;15.38;;;;;;;5.46;76.80;94388.34;5008908;28;20039;-77
2021/12/06 05:15:53;;;;;;;28.35;14.00;;;;;;;5.53;77.09;94396.47;5008446;28;20492;-77
2021/12/06 05:18:18;;;;;;;25.70;14.48;;;;;;;5.53;76.30;94399.97;4990594;28;20040;-78
2021/12/06 05:20:44;;;;;;;26.73;14.45;;;;;;;5.41;77.61;94402.16;5008243;28;20028;-77
2021/12/06 05:23:09;;;;;;;23.63;14.23;;;;;;;5.43;76.98;94409.97;5007967;28;20022;-77
2021/12/06 05:25:35;;;;;;;24.52;13.73;;;;;;;5.51;76.93;94422.41;5008904;28;20022;-77
2021/12/06 05:28:01;;;;;;;27.77;14.00;;;;;;;5.40;77.06;94412.97;5007794;28;20519;-78
2021/12/06 05:30:27;;;;;;;24.38;14.10;;;;;;;5.40;77.40;94405.00;5009082;28;20477;-78
2021/12/06 05:32:53;;;;;;;25.13;13.75;;;;;;;5.37;77.08;94400.03;5008173;28;20030;-77
2021/12/06 05:35:18;;;;;;;26.73;14.30;;;;;;;5.38;77.65;94404.31;5008307;28;20144;-79
2021/12/06 05:37:46;;;;;;;26.15;14.23;;;;;;;5.29;76.49;94401.69;5007044;28;20030;-78
2021/12/06 05:40:17;;;;;;;25.83;14.75;;;;;;;5.31;77.42;94413.00;5007793;28;20171;-78
2021/12/06 05:42:43;;;;;;;24.92;14.05;;;;;;;5.39;76.50;94427.25;5009075;28;20390;-78
2021/12/06 05:45:09;;;;;;;26.35;14.27;;;;;;;5.42;76.65;94434.88;5007563;28;20061;-79
2021/12/06 05:47:34;;;;;;;27.55;15.52;;;;;;;5.45;76.28;94431.88;5008520;28;20172;-78
2021/12/06 05:50:00;;;;;;;27.35;14.32;;;;;;;5.44;76.45;94427.56;5006540;28;20150;-77
2021/12/06 05:52:25;;;;;;;25.20;13.15;;;;;;;5.48;77.09;94407.59;5008149;28;20026;-79
2021/12/06 05:54:51;;;;;;;23.13;13.85;;;;;;;5.48;76.20;94410.28;5006626;28;20033;-78
2021/12/06 05:57:16;;;;;;;24.63;13.63;;;;;;;5.52;76.01;94408.09;5007623;28;20529;-76
2021/12/06 05:59:42;;;;;;;20.45;12.30;;;;;;;5.55;76.01;94403.28;5008197;28;20037;-79
2021/12/06 06:02:07;;;;;;;24.02;12.20;;;;;;;5.56;75.80;94410.25;5007532;28;20036;-77
2021/12/06 06:04:33;;;;;;;25.33;14.18;;;;;;;5.54;75.72;94422.91;5008202;28;20026;-76
2021/12/06 06:06:58;;;;;;;23.35;14.05;;;;;;;5.51;76.37;94423.25;5007264;28;20030;-77
2021/12/06 06:09:24;;;;;;;23.65;12.13;;;;;;;5.56;76.21;94428.88;5008299;28;20037;-78
2021/12/06 06:11:49;;;;;;;21.92;11.38;;;;;;;5.54;76.61;94417.59;5007242;28;20050;-80
2021/12/06 06:14:15;;;;;;;21.15;11.73;;;;;;;5.57;76.27;94427.88;5006466;28;20022;-77
2021/12/06 06:16:47;;;;;;;21.38;12.55;;;;;;;5.57;77.03;94433.22;5006254;28;20459;-78
2021/12/06 06:19:14;;;;;;;19.10;10.93;;;;;;;5.55;77.13;94442.34;5006523;28;20030;-77
2021/12/06 06:21:40;;;;;;;21.52;11.38;;;;;;;5.59;75.83;94435.69;5007970;28;20487;-78
2021/12/06 06:24:05;;;;;;;23.35;13.32;;;;;;;5.66;75.72;94426.00;5006944;28;20559;-78
2021/12/06 06:26:31;;;;;;;22.33;12.73;;;;;;;5.74;76.56;94427.81;5007387;28;20077;-78
2021/12/06 06:28:56;;;;;;;20.55;12.45;;;;;;;5.79;75.73;94425.47;5006650;28;20029;-78
2021/12/06 06:31:22;;;;;;;21.80;12.77;;;;;;;5.82;75.88;94433.13;5007167;28;20493;-78
2021/12/06 06:33:47;;;;;;;23.15;12.38;;;;;;;5.94;75.71;94414.94;5007089;28;20026;-78
2021/12/06 06:36:13;;;;;;;23.58;11.98;;;;;;;6.00;75.42;94426.72;5007233;28;20029;-77
2021/12/06 06:38:38;;;;;;;20.35;11.50;;;;;;;6.00;75.62;94448.00;5007272;28;20038;-78
2021/12/06 06:41:03;;;;;;;19.83;11.73;;;;;;;5.92;75.00;94451.53;5006736;28;20049;-77
2021/12/06 06:43:29;;;;;;;19.02;11.20;;;;;;;5.96;75.69;94446.72;5007207;28;20117;-77
2021/12/06 06:45:54;;;;;;;18.73;10.13;;;;;;;5.87;76.39;94445.91;5006647;28;20054;-77
2021/12/06 06:48:20;;;;;;;18.40;11.02;;;;;;;5.92;76.03;94445.38;5007284;28;20033;-77
2021/12/06 06:50:45;;;;;;;16.55;10.60;;;;;;;6.02;75.61;94440.69;5006708;28;20018;-77
2021/12/06 06:53:11;;;;;;;19.85;10.82;;;;;;;6.11;75.07;94433.50;5007321;28;20507;-77
2021/12/06 06:55:36;;;;;;;23.67;11.68;;;;;;;6.23;75.38;94460.59;5006724;28;20444;-78
2021/12/06 06:58:02;;;;;;;21.58;11.25;;;;;;;6.15;75.10;94464.13;5006460;28;20428;-77
2021/12/06 07:00:34;;;;;;;18.58;10.60;;;;;;;6.04;75.49;94470.66;5007091;28;20757;-77
2021/12/06 07:02:59;;;;;;;17.67;10.88;;;;;;;5.81;77.06;94460.72;5006454;28;20030;-76
2021/12/06 07:05:26;;;;;;;16.70;10.18;;;;;;;5.79;75.99;94460.06;5007365;28;20096;-80
2021/12/06 07:07:51;;;;;;;19.10;9.98;;;;;;;5.85;75.54;94450.56;5005003;28;20408;-79
2021/12/06 07:10:17;;;;;;;16.02;9.57;;;;;;;5.82;75.75;94446.41;5005894;28;20029;-78
2021/12/06 07:12:45;;;;;;;16.70;9.68;;;;;;;5.89;75.93;94446.56;5005930;28;20401;-78
2021/12/06 07:15:12;;;;;;;17.13;8.38;;;;;;;6.04;75.70;94449.38;5005490;28;20492;-79
2021/12/06 07:17:41;;;;;;;13.95;9.13;;;;;;;6.14;75.00;94446.47;5005705;28;20119;-77
2021/12/06 07:20:07;;;;;;;16.15;8.48;;;;;;;6.22;75.09;94444.78;5007215;28;20381;-80
2021/12/06 07:22:32;;;;;;;14.35;8.38;;;;;;;6.23;74.62;94441.94;5007408;28;20037;-78
2021/12/06 07:24:58;;;;;;;18.50;9.15;;;;;;;6.34;74.43;94430.06;5006474;28;20030;-81
2021/12/06 07:27:23;;;;;;;14.32;8.45;;;;;;;6.57;73.67;94442.59;5006637;28;20037;-77
2021/12/06 07:29:49;;;;;;;12.30;7.88;;;;;;;6.72;72.71;94441.84;5008174;28;20018;-79
2021/12/06 07:32:14;;;;;;;13.88;8.05;;;;;;;6.65;72.75;94436.38;5010826;28;20034;-77
2021/12/06 07:34:40;;;;;;;13.07;7.78;;;;;;;6.55;73.00;94449.94;5010741;28;20022;-78
2021/12/06 07:37:05;;;;;;;13.27;8.02;;;;;;;6.48;73.02;94438.31;5008944;28;20109;-78
2021/12/06 07:39:31;;;;;;;11.70;7.88;;;;;;;6.45;72.96;94449.34;5010941;28;20022;-78
2021/12/06 07:41:56;;;;;;;12.55;7.45;;;;;;;6.46;73.29;94445.66;5009778;28;20029;-79
2021/12/06 07:44:22;;;;;;;13.55;8.50;;;;;;;6.40;73.13;94439.22;5011126;28;20026;-78
2021/12/06 07:46:50;;;;;;;12.30;7.93;;;;;;;6.43;73.41;94462.84;5008403;28;20366;-78
2021/12/06 07:49:15;;;;;;;13.95;9.18;;;;;;;6.44;73.04;94472.47;5010791;28;20491;-78
2021/12/06 07:51:41;;;;;;;16.75;9.23;;;;;;;6.47;72.90;94460.63;5009902;28;20026;-78
2021/12/06 07:54:06;;;;;;;15.90;9.55;;;;;;;6.44;73.39;94461.81;5010231;28;20038;-78
2021/12/06 07:56:31;;;;;;;15.23;8.88;;;;;;;6.36;73.41;94453.88;5010450;28;20037;-78
2021/12/06 07:58:57;;;;;;;16.90;9.32;;;;;;;6.35;73.63;94450.38;5009434;28;20038;-77
2021/12/06 08:01:22;;;;;;;20.25;12.80;;;;;;;6.37;73.37;94445.69;5010840;28;20026;-78
2021/12/06 08:03:48;;;;;;;17.80;10.88;;;;;;;6.41;73.95;94448.84;5009664;28;20378;-78
2021/12/06 08:06:13;;;;;;;12.95;7.95;;;;;;;6.43;72.92;94439.66;5010244;28;20030;-77
2021/12/06 08:11:23;;;;;;;16.30;11.10;;;;;;;6.34;73.80;94434.56;5009423;28;20044;-77
2021/12/06 08:13:51;;;;;;;20.80;11.15;;;;;;;6.38;73.66;94435.88;5009948;28;20056;-79
2021/12/06 08:16:18;;;;;;;14.18;7.45;;;;;;;6.45;73.89;94434.16;5007853;28;20476;-78
2021/12/06 08:18:44;;;;;;;14.43;7.78;;;;;;;6.45;74.36;94438.69;4992860;28;20048;-78
2021/12/06 08:21:09;;;;;;;11.23;7.10;;;;;;;6.37;74.59;94450.19;5009013;28;20030;-77
2021/12/06 08:23:35;;;;;;;13.30;7.63;;;;;;;6.28;75.18;94452.91;4992000;28;20036;-78
2021/12/06 08:28:45;;;;;;;16.77;9.65;;;;;;;6.30;75.67;94432.25;5008157;28;20037;-77
2021/12/06 08:31:11;;;;;;;13.80;8.23;;;;;;;6.30;75.19;94452.75;5008378;28;20018;-77
2021/12/06 08:33:37;;;;;;;14.30;8.60;;;;;;;6.34;75.35;94446.06;5008838;28;20092;-79
2021/12/06 08:36:04;;;;;;;13.35;8.68;;;;;;;6.34;75.45;94448.72;5009722;28;20026;-77
2021/12/06 08:38:30;;;;;;;15.80;9.00;;;;;;;6.39;75.96;94448.19;5008817;28;20029;-77
2021/12/06 08:40:56;;;;;;;15.18;9.18;;;;;;;6.43;75.49;94428.19;5008919;28;20041;-77
2021/12/06 08:43:21;;;;;;;18.58;9.85;;;;;;;6.46;75.60;94432.34;5008951;28;20476;-78
2021/12/06 08:45:48;;;;;;;19.02;10.85;;;;;;;6.66;75.55;94425.53;5007921;28;20168;-78
2021/12/06 08:48:14;;;;;;;17.00;10.98;;;;;;;6.83;75.14;94424.59;5007780;28;20045;-78
2021/12/06 08:50:39;;;;;;;16.30;10.57;;;;;;;6.89;75.10;94429.19;5009200;28;20508;-77
2021/12/06 08:53:05;;;;;;;17.50;10.93;;;;;;;7.04;74.65;94426.59;5009596;28;20481;-77
2021/12/06 08:55:30;;;;;;;15.45;9.10;;;;;;;7.04;73.55;94424.72;5008554;28;20033;-80
2021/12/06 08:57:56;;;;;;;13.13;8.60;;;;;;;7.10;73.67;94428.53;5008214;28;20033;-77
2021/12/06 09:00:25;;;;;;;15.52;9.00;;;;;;;7.15;74.37;94431.50;5008393;28;20018;-76
2021/12/06 09:02:51;;;;;;;14.63;9.10;;;;;;;7.21;73.72;94427.25;5009110;28;20057;-76
2021/12/06 09:05:17;;;;;;;19.33;9.70;;;;;;;7.03;73.83;94414.25;5008667;28;20106;-78
2021/12/06 09:07:42;;;;;;;15.70;8.20;;;;;;;7.03;73.58;94415.09;5008539;28;20491;-80
2021/12/06 09:10:10;;;;;;;13.52;7.78;;;;;;;7.10;73.58;94409.88;5008774;28;20030;-77
2021/12/06 09:12:35;;;;;;;14.95;8.50;;;;;;;7.14;73.47;94423.69;5007916;28;20409;-77
2021/12/06 09:15:04;;;;;;;16.23;9.10;;;;;;;7.06;73.53;94424.59;5009020;28;20532;-78
2021/12/06 09:17:29;;;;;;;18.38;9.30;;;;;;;7.11;73.95;94410.72;5008087;28;20079;-80
2021/12/06 09:19:55;;;;;;;15.82;9.57;;;;;;;7.02;74.67;94409.94;5008666;28;20029;-77
2021/12/06 09:22:20;;;;;;;14.82;9.18;;;;;;;7.09;73.85;94418.88;5008083;28;20034;-78
2021/12/06 09:24:46;;;;;;;16.33;10.60;;;;;;;7.13;74.17;94406.84;4990860;28;20030;-80
2021/12/06 09:27:12;;;;;;;14.73;8.70;;;;;;;7.25;73.68;94395.72;5008166;28;20022;-80
2021/12/06 09:29:37;;;;;;;17.35;9.95;;;;;;;7.34;73.49;94393.78;5008037;28;20026;-76
2021/12/06 09:32:07;;;;;;;16.83;9.50;;;;;;;7.35;73.54;94406.94;5007698;28;20173;-78
2021/12/06 09:34:34;;;;;;;17.25;9.02;;;;;;;7.41;72.86;94406.25;5007878;28;20025;-79
2021/12/06 09:36:59;;;;;;;16.92;9.68;;;;;;;7.38;73.46;94406.59;5008419;28;20026;-78
2021/12/06 09:39:25;;;;;;;14.00;8.90;;;;;;;7.32;73.39;94411.84;5007670;28;20088;-78
2021/12/06 09:41:50;;;;;;;15.07;8.90;;;;;;;7.45;73.00;94403.22;5008290;28;20029;-77
2021/12/06 09:44:17;;;;;;;15.85;8.98;;;;;;;7.48;73.13;94392.19;5010472;28;20034;-77
2021/12/06 09:46:43;;;;;;;15.07;9.70;;;;;;;7.58;72.79;94383.91;4990327;28;20053;-77
2021/12/06 09:49:18;;;;;;;16.50;9.60;;;;;;;7.68;72.14;94384.44;5007388;28;20050;-77
2021/12/06 09:51:56;;;;;;;15.52;9.60;;;;;;;7.70;72.15;94390.41;5007564;28;20033;-78
2021/12/06 09:54:27;;;;;;;16.27;9.40;;;;;;;7.79;71.32;94383.97;5007958;28;20037;-77
2021/12/06 09:56:52;;;;;;;17.80;10.32;;;;;;;7.89;71.45;94372.16;5007472;28;20576;-77
2021/12/06 09:59:20;;;;;;;14.65;9.55;;;;;;;7.95;71.58;94360.72;5007685;28;20109;-77
2021/12/06 10:01:53;;;;;;;18.38;10.68;;;;;;;8.07;71.39;94355.75;5008053;28;20033;-78
2021/12/06 10:04:20;;;;;;;18.25;10.50;;;;;;;8.03;70.45;94346.44;5007304;28;20473;-79
2021/12/06 10:06:45;;;;;;;15.32;9.38;;;;;;;8.21;69.91;94331.84;5008362;28;20033;-80
2021/12/06 10:09:11;;;;;;;14.43;8.35;;;;;;;8.29;70.68;94327.22;5007468;28;20601;-78
2021/12/06 10:11:37;;;;;;;14.27;9.13;;;;;;;8.29;70.74;94326.38;5006368;28;20046;-76
2021/12/06 10:14:02;;;;;;;14.88;8.82;;;;;;;8.36;69.14;94315.78;5006193;28;20030;-79
2021/12/06 10:16:28;;;;;;;16.10;9.05;;;;;;;8.38;69.28;94324.44;5006357;28;20420;-77
2021/12/06 10:18:53;;;;;;;17.73;9.95;;;;;;;8.43;68.98;94337.22;5006040;28;20038;-78
2021/12/06 10:21:19;;;;;;;15.88;9.43;;;;;;;8.50;68.81;94332.75;5005866;28;20026;-78
2021/12/06 10:23:44;;;;;;;13.35;8.20;;;;;;;8.49;68.52;94304.38;5006466;28;20029;-77
2021/12/06 10:26:12;;;;;;;12.23;7.90;;;;;;;8.42;69.54;94315.00;5006830;28;20400;-79
2021/12/06 10:28:40;;;;;;;11.88;7.57;;;;;;;8.49;69.27;94294.53;5007290;28;20108;-77
2021/12/06 10:31:06;;;;;;;12.93;8.30;;;;;;;8.45;68.95;94279.88;5005599;28;20172;-77
2021/12/06 10:33:34;;;;;;;14.85;8.32;;;;;;;8.48;69.46;94279.50;5007658;28;20544;-78
2021/12/06 10:36:02;;;;;;;11.18;7.97;;;;;;;8.57;69.78;94311.47;5006960;28;20504;-77
2021/12/06 10:38:33;;;;;;;12.82;8.00;;;;;;;8.63;69.00;94308.03;5007501;28;20060;-77
2021/12/06 10:41:04;;;;;;;11.02;7.68;;;;;;;8.58;68.67;94303.25;5008211;28;20057;-78
2021/12/06 10:43:29;;;;;;;13.02;8.52;;;;;;;8.58;69.24;94303.25;5007043;28;20491;-77
2021/12/06 10:45:55;;;;;;;14.32;9.23;;;;;;;8.50;69.43;94287.31;5008106;28;20033;-78
2021/12/06 10:48:22;;;;;;;11.38;7.68;;;;;;;8.65;68.94;94298.81;5006734;28;20033;-78
2021/12/06 10:50:50;;;;;;;12.77;7.65;;;;;;;8.74;68.25;94296.81;5006961;28;20555;-78
2021/12/06 10:53:16;;;;;;;11.40;7.55;;;;;;;8.70;68.43;94303.56;5007064;28;20034;-77
2021/12/06 10:55:42;;;;;;;11.45;7.18;;;;;;;8.81;68.59;94288.00;5008448;28;20030;-78
2021/12/06 10:58:11;;;;;;;11.00;7.00;;;;;;;8.93;67.98;94293.66;5008801;28;20108;-78
2021/12/06 11:00:50;;;;;;;12.68;7.75;;;;;;;8.93;68.16;94290.97;5006037;28;20549;-78
2021/12/06 11:03:24;;;;;;;12.93;8.20;;;;;;;8.93;68.49;94299.81;5007231;28;20072;-81
2021/12/06 11:05:56;;;;;;;13.90;9.45;;;;;;;9.00;68.07;94305.22;5005874;28;20516;-77
2021/12/06 11:08:21;;;;;;;16.70;11.03;;;;;;;9.10;67.09;94302.19;5006792;28;20314;-78
2021/12/06 11:10:53;;;;;;;18.52;10.48;;;;;;;8.88;67.44;94300.41;5006249;28;20053;-78
2021/12/06 11:13:23;;;;;;;15.05;9.77;;;;;;;8.95;67.65;94297.78;5006001;28;20058;-77
2021/12/06 11:16:03;;;;;;;14.52;9.02;;;;;;;8.95;67.01;94302.28;5006800;28;20492;-77
2021/12/06 11:18:38;;;;;;;16.25;9.80;;;;;;;8.91;67.37;94301.88;5006030;28;20063;-79
2021/12/06 11:21:12;;;;;;;15.20;10.30;;;;;;;8.98;67.75;94316.09;5006578;28;20033;-78
2021/12/06 11:23:55;;;;;;;13.70;8.43;;;;;;;8.98;67.26;94312.63;5006685;28;20050;-78
2021/12/06 11:26:21;;;;;;;12.20;8.30;;;;;;;8.97;67.63;94302.94;5005390;28;20290;-80
2021/12/06 11:28:46;;;;;;;17.95;9.02;;;;;;;9.00;67.31;94284.66;5006623;28;20038;-78
2021/12/06 11:31:14;;;;;;;14.90;8.73;;;;;;;8.92;67.43;94266.09;5005845;28;20030;-77
2021/12/06 11:33:39;;;;;;;15.77;8.20;;;;;;;8.96;67.94;94269.19;5005190;28;20033;-78
2021/12/06 11:36:25;;;;;;;19.70;9.60;;;;;;;8.94;67.61;94271.22;5006012;28;20445;-77
2021/12/06 11:38:56;;;;;;;13.57;8.68;;;;;;;8.98;67.90;94276.00;5005897;28;20037;-77
2021/12/06 11:41:21;;;;;;;16.23;9.52;;;;;;;9.00;67.96;94273.97;5005423;28;20552;-80
2021/12/06 11:43:47;;;;;;;15.55;9.00;;;;;;;9.09;68.22;94273.81;5005791;28;20022;-77
2021/12/06 11:46:12;;;;;;;15.18;9.20;;;;;;;9.12;67.80;94266.22;5006960;28;20109;-79
2021/12/06 11:48:39;;;;;;;14.60;9.52;;;;;;;9.20;67.06;94259.88;5005794;28;20037;-77
2021/12/06 11:51:08;;;;;;;12.20;8.90;;;;;;;9.34;67.23;94262.59;5006504;28;20061;-78